Charlevoix, MI

8:22 AM EDT on May 04, 2015 (GMT -0400)
1.5 W Ironton | | Change Station
CLOSE
Current Station
Personal Weather Station
Location: Charlevoix, MI
Elevation: 750 ft
Nearby Weather Stations

Elev 750 ft 45.26 °N, 85.22 °W | Updated 5 seconds ago

Rain
Rain
55.1 °F
Feels Like 55.1 °F
N
11.0
Wind Variable Wind from SW
Gusts 17.0 mph

Today
High -- | Low -- °F
--% Chance of Precip.
Yesterday
High -- | Low -- °F
Precip. -- in
6:25 AM 8:50 PM
Full, 100% visible
Pressure 29.99 in
Visibility 2.5 miles
Clouds Scattered Clouds 300 ft
Mostly Cloudy 1100 ft
Overcast 2600 ft
Dew Point 52 °F
Humidity 91%
Rainfall 0.07 in
Snow Depth Not available.
UV 0 out of 12
Pollen 8.90 out of 12
Air Quality Not available.
Flu Activity Regional
METAR KCVX 041215Z AUTO 27010KT 2 1/2SM BR SCT003 BKN011 OVC026 11/10 A2999 RMK AO2 T01050103

More Conditions Fewer Conditions

Pressure 29.99 in
Visibility 2.5 miles
Clouds Scattered Clouds 300 ft
Mostly Cloudy 1100 ft
Overcast 2600 ft
Dew Point 52 °F
Humidity 91%
Rainfall 0.07 in
Snow Depth Not available.
UV 0 out of 12
Pollen 8.90 out of 12
Air Quality Not available.
Flu Activity Regional
METAR KCVX 041215Z AUTO 27010KT 2 1/2SM BR SCT003 BKN011 OVC026 11/10 A2999 RMK AO2 T01050103

More Conditions Fewer Conditions

Nepal has a long way to go to dig out and rebuild from a devastating earthquake. We have teamed up with several charities and organizations to make contributing to the relief effort as easy as possible.
How you can help: Portlight Strategies | Red Cross
Nowcast | as of 8:00 am EDT on May 4, 2015

At 9 am...mostly cloudy. Chance of showers. Temperature 53. West winds 7 mph. At 11 am...mostly cloudy. Chance of showers. Temperature 54. Northwest winds 7 mph. At 1 PM...partly cloudy. Temperature 57. Northwest winds 8 mph. At 3 PM...partly cloudy. Temperature 60. Northwest winds 10 mph.

×

10-Day Weather Forecast

Almanac

Astronomy

May. 04, 2015 Rise Set
Actual Time
Civil Twilight
Nautical Twilight
Astronomical Twilight
Moon
Length of Visible Light
Length of Day
Tomorrow will be .
, % of the Moon is Illuminated

Today's Extremes

State Highs State Lows

Community

WunderPhotos

Upload Photos

1,818,582 photos uploaded!

WunderBlogs® & News

Nearby

Air Quality

  Air Quality AQ Index Pollutant
Not available.

Snow Depth

Station Depth Elevation

Earthquake Activity

City Distance Mag. Time & Date
Minimum magnitude displayed is 2.5.

Coastal Water Temperatures

Place Temperature

Stations

Nearby Weather Stations

Station Location Temp. Windchill Dew Point Humidity Wind Precip. Elev Updated Type